createdAt,value
2023-05-18T00:00:49.381Z,7.92
2023-05-18T00:03:21.065Z,8.08
2023-05-18T00:05:49.433Z,8.02
2023-05-18T00:08:16.629Z,7.93
2023-05-18T00:10:44.171Z,7.94
2023-05-18T00:13:11.490Z,8.12
2023-05-18T00:15:39.149Z,8.07
2023-05-18T00:18:07.041Z,8.15
2023-05-18T00:20:34.865Z,8.06
2023-05-18T00:23:02.605Z,8.02
2023-05-18T00:25:30.331Z,7.82
2023-05-18T00:27:57.750Z,8.01
2023-05-18T00:30:31.013Z,8.18
2023-05-18T00:32:58.333Z,7.98
2023-05-18T00:35:26.151Z,7.90
2023-05-18T00:37:53.590Z,7.75
2023-05-18T00:40:22.522Z,7.71
2023-05-18T00:42:51.803Z,7.62
2023-05-18T00:45:19.502Z,7.57
2023-05-18T00:47:47.460Z,7.56
2023-05-18T00:50:15.330Z,7.61
2023-05-18T00:52:43.925Z,7.56
2023-05-18T00:55:12.685Z,7.55
2023-05-18T00:57:44.635Z,7.57
2023-05-18T01:00:14.072Z,7.58
2023-05-18T01:02:45.545Z,7.59
2023-05-18T01:05:13.448Z,7.67
2023-05-18T01:07:44.690Z,7.41
2023-05-18T01:10:15.366Z,7.42
2023-05-18T01:12:53.678Z,7.36
2023-05-18T01:15:54.524Z,7.41
2023-05-18T01:18:31.828Z,7.53
2023-05-18T01:21:11.269Z,7.61
2023-05-18T01:23:56.799Z,7.64
2023-05-18T01:26:30.263Z,7.68
2023-05-18T01:29:01.549Z,7.62
2023-05-18T01:31:29.490Z,7.55
2023-05-18T01:33:56.892Z,7.59
2023-05-18T01:36:24.469Z,7.56
2023-05-18T01:38:55.272Z,7.73
2023-05-18T01:41:25.098Z,7.69
2023-05-18T01:44:12.543Z,7.60
2023-05-18T01:47:01.825Z,7.51
2023-05-18T01:49:38.191Z,7.50
2023-05-18T01:52:21.369Z,7.36
2023-05-18T01:54:52.430Z,6.98
2023-05-18T01:57:23.918Z,7.04
2023-05-18T01:59:52.164Z,7.02
2023-05-18T02:02:19.871Z,6.98
2023-05-18T02:04:47.458Z,7.06
2023-05-18T02:07:15.001Z,7.01
2023-05-18T02:09:44.385Z,7.09
2023-05-18T02:12:12.214Z,7.02
2023-05-18T02:14:39.527Z,6.98
2023-05-18T02:17:07.306Z,7.05
2023-05-18T02:19:38.448Z,7.02
2023-05-18T02:22:07.160Z,7.23
2023-05-18T02:24:35.030Z,7.12
2023-05-18T02:27:05.627Z,7.09
2023-05-18T02:29:32.909Z,7.07
2023-05-18T02:32:00.614Z,7.01
2023-05-18T02:34:32.114Z,7.04
2023-05-18T02:37:03.761Z,7.07
2023-05-18T02:39:31.320Z,6.97
2023-05-18T02:41:58.891Z,6.85
2023-05-18T02:44:26.228Z,7.04
2023-05-18T02:46:53.804Z,7.06
2023-05-18T02:49:21.146Z,7.11
2023-05-18T02:51:48.776Z,7.06
2023-05-18T02:54:16.089Z,7.28
2023-05-18T02:56:44.562Z,7.35
2023-05-18T02:59:28.183Z,7.42
2023-05-18T03:01:55.981Z,7.41
2023-05-18T03:04:26.284Z,7.37
2023-05-18T03:06:57.434Z,7.44
2023-05-18T03:09:25.794Z,7.70
2023-05-18T03:11:55.009Z,7.66
2023-05-18T03:14:22.311Z,7.60
2023-05-18T03:16:54.397Z,7.70
2023-05-18T03:19:24.073Z,7.74
2023-05-18T03:21:51.953Z,7.74
2023-05-18T03:24:20.449Z,7.90
2023-05-18T03:26:49.992Z,8.09
2023-05-18T03:29:17.421Z,8.13
2023-05-18T03:31:45.314Z,8.20
2023-05-18T03:34:13.691Z,8.31
2023-05-18T03:36:42.585Z,8.55
2023-05-18T03:39:10.618Z,8.80
2023-05-18T03:41:38.639Z,9.13
2023-05-18T03:44:06.208Z,9.37
2023-05-18T03:46:34.068Z,9.50
2023-05-18T03:49:03.391Z,9.66
2023-05-18T03:51:37.037Z,9.63
2023-05-18T03:54:04.794Z,9.96
2023-05-18T03:56:32.513Z,10.05
2023-05-18T03:59:00.241Z,10.15
2023-05-18T04:01:30.404Z,10.26
2023-05-18T04:03:58.254Z,10.57
2023-05-18T04:06:26.911Z,10.84
2023-05-18T04:08:54.992Z,11.27
2023-05-18T04:11:22.722Z,11.76
2023-05-18T04:13:50.953Z,11.82
2023-05-18T04:16:19.703Z,12.10
2023-05-18T04:18:47.196Z,12.54
2023-05-18T04:21:16.176Z,12.67
2023-05-18T04:23:45.923Z,13.16
2023-05-18T04:26:20.014Z,13.18
2023-05-18T04:28:47.536Z,13.43
2023-05-18T04:31:15.103Z,13.64
2023-05-18T04:33:42.564Z,13.90
2023-05-18T04:36:10.378Z,13.85
2023-05-18T04:38:38.480Z,14.16
2023-05-18T04:41:07.859Z,14.45
2023-05-18T04:43:36.698Z,14.21
2023-05-18T04:46:04.456Z,14.59
2023-05-18T04:48:33.570Z,14.19
2023-05-18T04:51:04.945Z,14.03
2023-05-18T04:53:33.699Z,14.55
2023-05-18T04:56:02.052Z,15.19
2023-05-18T04:58:30.683Z,15.26
2023-05-18T05:00:58.580Z,15.66
2023-05-18T05:03:26.220Z,15.97
2023-05-18T05:05:53.930Z,15.90
2023-05-18T05:08:21.270Z,16.83
2023-05-18T05:10:48.768Z,16.86
2023-05-18T05:13:16.064Z,17.78
2023-05-18T05:15:43.617Z,18.88
2023-05-18T05:18:10.938Z,21.23
2023-05-18T05:20:38.634Z,23.96
2023-05-18T05:23:06.028Z,24.86
2023-05-18T05:25:33.764Z,27.79
2023-05-18T05:28:01.631Z,28.10
2023-05-18T05:30:30.005Z,30.36
2023-05-18T05:32:57.666Z,29.57
2023-05-18T05:35:26.046Z,28.49
2023-05-18T05:37:53.498Z,30.89
2023-05-18T05:40:21.822Z,32.60
2023-05-18T05:42:50.494Z,32.81
2023-05-18T05:45:18.323Z,33.74
2023-05-18T05:47:51.139Z,33.32
2023-05-18T05:50:20.701Z,31.73
2023-05-18T05:52:49.992Z,32.20
2023-05-18T05:55:18.399Z,33.78
2023-05-18T05:57:46.023Z,31.04
2023-05-18T06:00:14.074Z,35.14
2023-05-18T06:02:58.979Z,32.88
2023-05-18T06:05:38.128Z,34.55
2023-05-18T06:08:09.366Z,32.94
2023-05-18T06:10:39.338Z,30.82
2023-05-18T06:13:07.523Z,35.51
2023-05-18T06:15:42.258Z,35.51
2023-05-18T06:18:11.493Z,35.42
2023-05-18T06:20:40.505Z,34.97
2023-05-18T06:23:07.818Z,33.59
2023-05-18T06:25:53.835Z,34.34
2023-05-18T06:28:34.702Z,31.34
2023-05-18T06:31:22.676Z,31.37
2023-05-18T06:33:53.241Z,33.28
2023-05-18T06:36:21.113Z,32.86
2023-05-18T06:38:48.564Z,32.47
2023-05-18T06:41:16.208Z,33.97
2023-05-18T06:43:43.561Z,32.21
2023-05-18T06:46:23.588Z,30.71
2023-05-18T06:48:57.870Z,34.15
2023-05-18T06:51:25.764Z,33.67
2023-05-18T06:53:54.991Z,33.70
2023-05-18T06:56:23.627Z,35.44
2023-05-18T06:58:52.304Z,36.86
2023-05-18T07:01:19.887Z,35.76
2023-05-18T07:03:47.472Z,37.98
2023-05-18T07:06:15.149Z,35.26
2023-05-18T07:08:42.530Z,32.47
2023-05-18T07:11:10.112Z,34.10
2023-05-18T07:13:37.363Z,33.01
2023-05-18T07:16:05.255Z,30.87
2023-05-18T07:18:34.100Z,29.94
2023-05-18T07:21:01.663Z,32.65
2023-05-18T07:23:29.084Z,31.40
2023-05-18T07:25:57.797Z,31.06
2023-05-18T07:28:25.186Z,33.97
2023-05-18T07:30:52.765Z,34.02
2023-05-18T07:33:20.146Z,32.90
2023-05-18T07:35:47.747Z,31.19
2023-05-18T07:38:15.130Z,26.53
2023-05-18T07:40:42.670Z,27.69
2023-05-18T07:43:10.500Z,27.50
2023-05-18T07:45:38.096Z,25.56
2023-05-18T07:48:05.696Z,26.37
2023-05-18T07:50:34.804Z,27.98
2023-05-18T07:53:02.050Z,29.48
2023-05-18T07:55:29.920Z,28.42
2023-05-18T07:57:57.421Z,26.73
2023-05-18T08:00:25.128Z,25.04
2023-05-18T08:02:53.094Z,26.00
2023-05-18T08:05:22.569Z,26.32
2023-05-18T08:07:49.930Z,26.94
2023-05-18T08:10:17.619Z,25.01
2023-05-18T08:12:44.878Z,26.62
2023-05-18T08:15:12.479Z,28.89
2023-05-18T08:17:40.030Z,28.79
2023-05-18T08:20:08.910Z,28.29
2023-05-18T08:22:36.443Z,27.45
2023-05-18T08:25:04.315Z,24.27
2023-05-18T08:27:31.892Z,26.00
2023-05-18T08:29:59.454Z,25.96
2023-05-18T08:32:26.905Z,25.13
2023-05-18T08:34:54.468Z,26.44
2023-05-18T08:37:22.264Z,25.79
2023-05-18T08:39:49.791Z,28.04
2023-05-18T08:42:24.491Z,27.23
2023-05-18T08:45:36.191Z,24.42
2023-05-18T08:48:04.297Z,23.50
2023-05-18T08:50:33.176Z,23.43
2023-05-18T08:53:06.780Z,23.42
2023-05-18T08:55:37.035Z,25.52
2023-05-18T08:58:07.570Z,27.41
2023-05-18T09:00:36.172Z,27.67
2023-05-18T09:03:05.637Z,29.42
2023-05-18T09:05:33.697Z,29.90
2023-05-18T09:08:01.686Z,27.44
2023-05-18T09:10:29.755Z,24.52
2023-05-18T09:12:58.003Z,24.57
2023-05-18T09:15:26.310Z,24.78
2023-05-18T09:17:53.869Z,24.18
2023-05-18T09:20:22.182Z,25.06
2023-05-18T09:22:51.597Z,25.60
2023-05-18T09:25:19.453Z,26.10
2023-05-18T09:27:48.448Z,25.15
2023-05-18T09:30:16.196Z,27.28
2023-05-18T09:32:47.392Z,26.41
2023-05-18T09:35:15.767Z,26.36
2023-05-18T09:37:43.551Z,27.51
2023-05-18T09:40:11.399Z,28.11
2023-05-18T09:42:43.963Z,26.97
2023-05-18T09:45:26.862Z,26.11
2023-05-18T09:47:54.634Z,26.93
2023-05-18T09:50:23.588Z,26.74
2023-05-18T09:52:51.227Z,27.10
2023-05-18T09:55:20.303Z,28.67
2023-05-18T09:57:50.143Z,28.48
2023-05-18T10:00:20.777Z,22.85
2023-05-18T10:02:52.545Z,23.87
2023-05-18T10:05:21.373Z,21.94
2023-05-18T10:07:48.763Z,21.20
2023-05-18T10:10:21.203Z,22.54
2023-05-18T10:12:51.038Z,21.46
2023-05-18T10:15:21.199Z,22.76
2023-05-18T10:17:51.224Z,22.90
2023-05-18T10:20:20.514Z,23.63
2023-05-18T10:22:49.161Z,21.83
2023-05-18T10:25:20.125Z,22.26
2023-05-18T10:27:49.976Z,20.47
2023-05-18T10:30:20.358Z,20.72
2023-05-18T10:32:48.526Z,20.36
2023-05-18T10:35:17.106Z,20.75
2023-05-18T10:37:50.301Z,20.66
2023-05-18T10:40:19.886Z,21.02
2023-05-18T10:42:49.112Z,21.84
2023-05-18T10:45:16.848Z,20.01
2023-05-18T10:47:44.716Z,19.59
2023-05-18T10:50:14.157Z,20.52
2023-05-18T10:52:41.817Z,20.73
2023-05-18T10:55:09.644Z,19.57
2023-05-18T10:57:43.652Z,20.52
2023-05-18T11:00:11.889Z,21.49
2023-05-18T11:02:42.714Z,19.58
2023-05-18T11:05:11.223Z,19.93
2023-05-18T11:07:39.045Z,18.55
2023-05-18T11:10:11.605Z,17.56
2023-05-18T11:12:40.631Z,17.58
2023-05-18T11:15:08.670Z,17.06
2023-05-18T11:17:36.105Z,16.83
2023-05-18T11:20:09.652Z,15.34
2023-05-18T11:22:51.481Z,15.40
2023-05-18T11:25:28.356Z,15.77
2023-05-18T11:28:02.214Z,15.41
2023-05-18T11:30:33.916Z,15.53
2023-05-18T11:33:32.960Z,15.95
2023-05-18T11:36:11.654Z,16.00
2023-05-18T11:39:02.410Z,16.46
2023-05-18T11:41:35.860Z,16.77
2023-05-18T11:44:15.257Z,16.61
2023-05-18T11:47:10.979Z,15.80
2023-05-18T11:49:46.701Z,15.54
2023-05-18T11:52:22.386Z,15.70
2023-05-18T11:54:52.425Z,15.59
2023-05-18T11:57:24.625Z,15.24
2023-05-18T11:59:56.860Z,15.13
2023-05-18T12:02:26.959Z,15.31
2023-05-18T12:04:57.141Z,15.56
2023-05-18T12:07:28.434Z,15.67
2023-05-18T12:10:00.583Z,15.44
2023-05-18T12:12:28.471Z,15.01
2023-05-18T12:15:01.389Z,15.10
2023-05-18T12:17:41.949Z,14.94
2023-05-18T12:20:11.992Z,15.15
2023-05-18T12:22:41.407Z,15.72
2023-05-18T12:25:09.641Z,15.53
2023-05-18T12:27:41.474Z,15.74
2023-05-18T12:30:16.368Z,15.75
2023-05-18T12:32:57.693Z,15.32
2023-05-18T12:35:30.284Z,15.14
2023-05-18T12:38:02.962Z,14.99
2023-05-18T12:40:44.766Z,14.72
2023-05-18T12:43:13.246Z,15.07
2023-05-18T12:45:41.234Z,14.99
2023-05-18T12:48:11.179Z,15.07
2023-05-18T12:50:50.945Z,15.25
2023-05-18T12:53:18.958Z,15.50
2023-05-18T12:55:46.198Z,15.52
2023-05-18T12:58:17.694Z,15.36
2023-05-18T13:00:47.196Z,15.39
2023-05-18T13:03:17.341Z,15.12
2023-05-18T13:05:46.387Z,15.28
2023-05-18T13:08:19.995Z,15.44
2023-05-18T13:10:50.999Z,15.27
2023-05-18T13:13:23.033Z,15.21
2023-05-18T13:15:51.354Z,14.52
2023-05-18T13:18:18.867Z,14.00
2023-05-18T13:20:51.842Z,14.36
2023-05-18T13:23:21.828Z,14.58
2023-05-18T13:25:49.811Z,14.89
2023-05-18T13:28:19.279Z,15.21
2023-05-18T13:30:48.748Z,15.10
2023-05-18T13:33:18.138Z,14.57
2023-05-18T13:35:45.881Z,14.91
2023-05-18T13:38:14.510Z,14.79
2023-05-18T13:40:42.954Z,14.67
2023-05-18T13:43:12.777Z,14.39
2023-05-18T13:45:42.070Z,14.51
2023-05-18T13:48:10.835Z,14.38
2023-05-18T13:50:39.280Z,14.89
2023-05-18T13:53:07.169Z,14.73
2023-05-18T13:55:35.195Z,14.91
2023-05-18T13:58:02.822Z,14.90
2023-05-18T14:00:33.569Z,14.92
2023-05-18T14:03:01.692Z,14.74
2023-05-18T14:05:29.182Z,14.73
2023-05-18T14:07:56.951Z,14.87
2023-05-18T14:10:24.168Z,14.95
2023-05-18T14:12:51.730Z,15.15
2023-05-18T14:15:18.886Z,14.93
2023-05-18T14:17:46.375Z,14.67
2023-05-18T14:20:13.757Z,14.96
2023-05-18T14:22:41.545Z,15.18
2023-05-18T14:25:09.089Z,15.27
2023-05-18T14:27:36.798Z,14.56
2023-05-18T14:30:06.264Z,13.98
2023-05-18T14:32:33.960Z,14.10
2023-05-18T14:35:01.154Z,14.19
2023-05-18T14:37:28.820Z,14.04
2023-05-18T14:39:56.209Z,14.49
2023-05-18T14:42:23.736Z,15.00
2023-05-18T14:44:51.095Z,14.26
2023-05-18T14:47:18.534Z,14.13
2023-05-18T14:49:46.473Z,14.38
2023-05-18T14:52:14.444Z,14.44
2023-05-18T14:54:42.424Z,14.14
2023-05-18T14:57:10.006Z,14.04
2023-05-18T14:59:37.212Z,14.36
2023-05-18T15:02:05.026Z,14.18
2023-05-18T15:04:32.398Z,14.17
2023-05-18T15:06:59.942Z,14.30
2023-05-18T15:09:27.208Z,14.54
2023-05-18T15:11:54.749Z,15.10
2023-05-18T15:14:22.029Z,15.24
2023-05-18T15:16:49.552Z,15.21
2023-05-18T15:19:16.763Z,15.05
2023-05-18T15:21:45.049Z,14.97
2023-05-18T15:24:12.339Z,14.79
2023-05-18T15:26:40.077Z,14.51
2023-05-18T15:29:07.224Z,14.78
2023-05-18T15:31:36.979Z,14.71
2023-05-18T15:34:04.238Z,15.00
2023-05-18T15:36:32.401Z,14.76
2023-05-18T15:39:00.086Z,14.94
2023-05-18T15:41:33.056Z,14.90
2023-05-18T15:44:01.920Z,14.26
2023-05-18T15:46:32.112Z,14.70
2023-05-18T15:48:59.421Z,14.84
2023-05-18T15:51:26.930Z,14.75
2023-05-18T15:53:54.160Z,14.74
2023-05-18T15:56:22.081Z,15.15
2023-05-18T15:58:49.391Z,15.16
2023-05-18T16:01:16.890Z,15.42
2023-05-18T16:03:44.322Z,14.46
2023-05-18T16:06:12.152Z,13.98
2023-05-18T16:08:39.341Z,13.88
2023-05-18T16:11:07.215Z,13.78
2023-05-18T16:13:34.458Z,13.53
2023-05-18T16:16:03.698Z,13.95
2023-05-18T16:18:31.022Z,14.29
2023-05-18T16:20:58.556Z,14.35
2023-05-18T16:23:25.913Z,14.60
2023-05-18T16:25:53.457Z,14.66
2023-05-18T16:28:20.664Z,14.35
2023-05-18T16:30:48.230Z,14.11
2023-05-18T16:33:16.928Z,13.96
2023-05-18T16:35:44.400Z,14.25
2023-05-18T16:38:13.313Z,14.43
2023-05-18T16:40:40.821Z,14.72
2023-05-18T16:43:08.033Z,14.00
2023-05-18T16:45:35.598Z,14.27
2023-05-18T16:48:03.887Z,14.22
2023-05-18T16:50:31.827Z,14.24
2023-05-18T16:52:59.308Z,13.70
2023-05-18T16:55:27.158Z,13.75
2023-05-18T16:57:54.438Z,13.36
2023-05-18T17:00:22.196Z,13.08
2023-05-18T17:02:49.545Z,13.11
2023-05-18T17:05:21.514Z,13.24
2023-05-18T17:07:52.499Z,13.38
2023-05-18T17:10:20.035Z,13.39
2023-05-18T17:12:47.300Z,13.16
2023-05-18T17:15:15.050Z,12.91
2023-05-18T17:17:43.946Z,13.02
2023-05-18T17:20:11.915Z,12.92
2023-05-18T17:22:39.256Z,12.90
2023-05-18T17:25:08.512Z,13.21
2023-05-18T17:27:35.803Z,13.29
2023-05-18T17:30:03.487Z,13.37
2023-05-18T17:32:30.869Z,13.50
2023-05-18T17:34:58.501Z,13.35
2023-05-18T17:37:26.031Z,13.08
2023-05-18T17:39:53.840Z,13.19
2023-05-18T17:42:21.123Z,13.10
2023-05-18T17:44:48.644Z,13.38
2023-05-18T17:47:17.512Z,13.46
2023-05-18T17:49:45.082Z,13.25
2023-05-18T17:52:12.589Z,13.22
2023-05-18T17:54:40.139Z,13.19
2023-05-18T17:57:07.372Z,12.99
2023-05-18T17:59:37.125Z,12.95
2023-05-18T18:02:05.362Z,12.71
2023-05-18T18:04:32.967Z,12.49
2023-05-18T18:07:01.843Z,12.42
2023-05-18T18:09:29.466Z,12.50
2023-05-18T18:11:58.090Z,12.52
2023-05-18T18:14:25.799Z,12.36
2023-05-18T18:16:53.212Z,12.50
2023-05-18T18:19:20.949Z,12.57
2023-05-18T18:21:48.300Z,12.49
2023-05-18T18:24:15.996Z,12.25
2023-05-18T18:26:43.279Z,12.38
2023-05-18T18:29:10.906Z,12.35
2023-05-18T18:31:38.280Z,12.37
2023-05-18T18:34:05.954Z,12.20
2023-05-18T18:36:33.722Z,12.17
2023-05-18T18:39:01.388Z,12.05
2023-05-18T18:41:28.949Z,12.15
2023-05-18T18:43:57.324Z,12.07
2023-05-18T18:46:24.697Z,12.12
2023-05-18T18:48:52.317Z,12.05
2023-05-18T18:51:19.644Z,11.95
2023-05-18T18:53:47.229Z,11.87
2023-05-18T18:56:14.560Z,11.72
2023-05-18T18:58:42.147Z,11.75
2023-05-18T19:01:09.497Z,11.55
2023-05-18T19:03:37.171Z,11.70
2023-05-18T19:06:04.654Z,11.72
2023-05-18T19:08:32.298Z,11.58
2023-05-18T19:10:59.979Z,11.53
2023-05-18T19:13:27.591Z,11.48
2023-05-18T19:15:54.926Z,11.41
2023-05-18T19:18:22.590Z,11.28
2023-05-18T19:20:50.050Z,11.32
2023-05-18T19:23:17.689Z,11.38
2023-05-18T19:25:45.182Z,11.20
2023-05-18T19:28:12.737Z,11.17
2023-05-18T19:30:40.084Z,11.26
2023-05-18T19:33:07.744Z,11.21
2023-05-18T19:35:35.240Z,11.29
2023-05-18T19:38:02.790Z,11.21
2023-05-18T19:40:30.162Z,11.12
2023-05-18T19:42:59.808Z,11.10
2023-05-18T19:45:27.476Z,11.07
2023-05-18T19:47:55.618Z,11.20
2023-05-18T19:50:22.946Z,11.16
2023-05-18T19:52:50.723Z,11.02
2023-05-18T19:55:18.346Z,10.90
2023-05-18T19:57:45.931Z,10.70
2023-05-18T20:00:13.892Z,10.87
2023-05-18T20:02:41.520Z,10.81
2023-05-18T20:05:12.735Z,10.82
2023-05-18T20:07:41.133Z,10.75
2023-05-18T20:10:08.467Z,10.60
2023-05-18T20:12:36.080Z,10.51
2023-05-18T20:15:04.249Z,10.43
2023-05-18T20:17:31.965Z,10.30
2023-05-18T20:20:00.156Z,10.29
2023-05-18T20:22:28.130Z,10.24
2023-05-18T20:24:55.570Z,10.39
2023-05-18T20:27:23.168Z,10.47
2023-05-18T20:29:50.407Z,10.49
2023-05-18T20:32:17.952Z,10.38
2023-05-18T20:34:45.445Z,10.40
2023-05-18T20:37:14.235Z,10.35
2023-05-18T20:39:42.790Z,10.31
2023-05-18T20:42:12.922Z,10.24
2023-05-18T20:44:40.292Z,10.14
2023-05-18T20:47:08.670Z,10.14
2023-05-18T20:49:35.968Z,9.99
2023-05-18T20:52:03.635Z,9.96
2023-05-18T20:54:31.047Z,9.88
2023-05-18T20:56:58.680Z,9.81
2023-05-18T20:59:26.404Z,9.78
2023-05-18T21:01:54.243Z,9.73
2023-05-18T21:04:21.949Z,9.76
2023-05-18T21:06:49.659Z,9.64
2023-05-18T21:09:17.778Z,10.00
2023-05-18T21:11:45.383Z,10.19
2023-05-18T21:14:12.664Z,10.15
2023-05-18T21:16:40.603Z,9.93
2023-05-18T21:19:08.106Z,9.85
2023-05-18T21:21:36.023Z,9.61
2023-05-18T21:24:03.473Z,9.61
2023-05-18T21:26:31.109Z,9.65
2023-05-18T21:28:58.425Z,9.74
2023-05-18T21:31:26.364Z,9.62
2023-05-18T21:33:53.710Z,9.56
2023-05-18T21:36:34.454Z,9.62
2023-05-18T21:39:05.892Z,9.54
2023-05-18T21:41:35.393Z,9.85
2023-05-18T21:44:03.374Z,10.19
2023-05-18T21:46:31.262Z,10.00
2023-05-18T21:48:58.710Z,9.94
2023-05-18T21:51:26.393Z,9.97
2023-05-18T21:53:53.623Z,9.78
2023-05-18T21:56:21.577Z,9.75
2023-05-18T21:58:48.805Z,9.84
2023-05-18T22:01:19.786Z,9.85
2023-05-18T22:03:48.277Z,9.69
2023-05-18T22:06:16.636Z,9.55
2023-05-18T22:08:44.483Z,9.46
2023-05-18T22:11:12.872Z,9.30
2023-05-18T22:13:40.699Z,9.19
2023-05-18T22:16:08.401Z,9.07
2023-05-18T22:18:35.673Z,9.09
2023-05-18T22:21:03.218Z,9.02
2023-05-18T22:23:30.567Z,9.00
2023-05-18T22:25:58.211Z,9.08
2023-05-18T22:28:25.476Z,9.19
2023-05-18T22:30:53.159Z,9.09
2023-05-18T22:33:21.395Z,9.05
2023-05-18T22:35:49.610Z,9.20
2023-05-18T22:38:17.944Z,9.35
2023-05-18T22:40:45.684Z,9.28
2023-05-18T22:43:13.102Z,9.39
2023-05-18T22:45:40.967Z,9.67
2023-05-18T22:48:08.359Z,9.60
2023-05-18T22:50:36.025Z,9.71
2023-05-18T22:53:04.888Z,9.66
2023-05-18T22:55:32.888Z,9.73
2023-05-18T22:58:00.133Z,9.90
2023-05-18T23:00:27.661Z,9.97
2023-05-18T23:02:55.143Z,9.92
2023-05-18T23:05:22.920Z,9.80
2023-05-18T23:07:50.258Z,9.81
2023-05-18T23:10:18.616Z,9.83
2023-05-18T23:12:46.340Z,9.63
2023-05-18T23:15:14.073Z,9.59
2023-05-18T23:17:46.297Z,9.58
2023-05-18T23:20:13.848Z,9.57
2023-05-18T23:22:41.146Z,9.46
2023-05-18T23:25:10.057Z,9.37
2023-05-18T23:27:37.609Z,9.12
2023-05-18T23:30:05.761Z,8.97
2023-05-18T23:32:33.533Z,8.84
2023-05-18T23:35:01.487Z,8.58
2023-05-18T23:37:31.577Z,8.63
2023-05-18T23:40:02.827Z,8.70
2023-05-18T23:42:31.571Z,8.62
2023-05-18T23:44:59.542Z,8.66
2023-05-18T23:47:27.121Z,8.71
2023-05-18T23:49:55.049Z,8.94
2023-05-18T23:52:25.148Z,9.31
2023-05-18T23:54:55.732Z,9.29
2023-05-18T23:57:24.079Z,9.11
2023-05-18T23:59:51.885Z,8.95
